createdAt,value
2019-05-21T00:00:56.024Z,33.08
2019-05-21T00:03:29.495Z,35.85
2019-05-21T00:06:03.003Z,36.28
2019-05-21T00:08:36.464Z,32.48
2019-05-21T00:11:10.047Z,37.42
2019-05-21T00:13:43.521Z,35.38
2019-05-21T00:16:17.110Z,33.40
2019-05-21T00:18:50.705Z,30.52
2019-05-21T00:21:24.397Z,37.05
2019-05-21T00:23:57.953Z,33.20
2019-05-21T00:26:31.456Z,34.15
2019-05-21T00:29:41.415Z,33.20
2019-05-21T00:32:51.319Z,36.98
2019-05-21T00:36:01.220Z,38.05
2019-05-21T00:39:11.242Z,39.45
2019-05-21T00:42:02.570Z,41.05
2019-05-21T00:44:42.504Z,43.85
2019-05-21T00:47:16.005Z,39.10
2019-05-21T00:49:49.639Z,41.35
2019-05-21T00:52:23.660Z,45.12
2019-05-21T00:54:57.444Z,41.68
2019-05-21T00:57:30.917Z,44.18
2019-05-21T01:00:06.768Z,46.58
2019-05-21T01:02:40.472Z,44.27
2019-05-21T01:05:14.340Z,45.12
2019-05-21T01:07:47.886Z,41.70
2019-05-21T01:10:21.501Z,43.70
2019-05-21T01:12:55.057Z,44.42
2019-05-21T01:15:28.571Z,42.35
2019-05-21T01:18:02.107Z,44.13
2019-05-21T01:20:35.658Z,43.02
2019-05-21T01:23:09.204Z,47.13
2019-05-21T01:25:42.777Z,44.10
2019-05-21T01:28:16.249Z,45.50
2019-05-21T01:30:49.928Z,46.50
2019-05-21T01:33:23.408Z,45.70
2019-05-21T01:35:56.982Z,44.08
2019-05-21T01:38:30.454Z,46.90
2019-05-21T01:41:04.041Z,43.52
2019-05-21T01:43:37.631Z,42.85
2019-05-21T01:46:11.136Z,46.25
2019-05-21T01:48:44.682Z,40.78
2019-05-21T01:51:18.308Z,42.45
2019-05-21T01:53:51.784Z,44.55
2019-05-21T01:56:25.290Z,44.08
2019-05-21T01:58:58.977Z,47.13
2019-05-21T02:01:32.469Z,47.73
2019-05-21T02:04:06.083Z,46.13
2019-05-21T02:06:39.730Z,48.73
2019-05-21T02:09:13.207Z,54.55
2019-05-21T02:11:46.722Z,49.90
2019-05-21T02:14:20.204Z,50.67
2019-05-21T02:16:53.792Z,51.02
2019-05-21T02:19:27.342Z,53.52
2019-05-21T02:22:00.857Z,48.85
2019-05-21T02:24:34.358Z,53.00
2019-05-21T02:27:07.957Z,49.42
2019-05-21T02:29:41.463Z,46.70
2019-05-21T02:32:14.986Z,51.70
2019-05-21T02:34:48.450Z,49.93
2019-05-21T02:37:21.958Z,49.60
2019-05-21T02:39:55.438Z,49.35
2019-05-21T02:42:29.089Z,45.65
2019-05-21T02:45:05.446Z,52.05
2019-05-21T02:47:38.961Z,47.75
2019-05-21T02:50:13.484Z,47.38
2019-05-21T02:52:47.041Z,46.48
2019-05-21T02:55:20.542Z,45.92
2019-05-21T02:57:54.197Z,44.10
2019-05-21T03:00:39.170Z,44.05
2019-05-21T03:03:14.448Z,43.90
2019-05-21T03:05:48.060Z,44.30
2019-05-21T03:08:21.775Z,44.30
2019-05-21T03:10:55.395Z,43.65
2019-05-21T03:13:29.043Z,45.98
2019-05-21T03:16:02.604Z,44.25
2019-05-21T03:18:36.245Z,42.00
2019-05-21T03:21:09.812Z,42.48
2019-05-21T03:23:43.373Z,48.30
2019-05-21T03:26:17.075Z,46.33
2019-05-21T03:28:50.742Z,47.67
2019-05-21T03:31:24.303Z,45.43
2019-05-21T03:33:57.931Z,45.40
2019-05-21T03:36:33.907Z,44.75
2019-05-21T03:39:06.715Z,41.98
2019-05-21T03:41:40.348Z,48.15
2019-05-21T03:44:13.967Z,45.40
2019-05-21T03:46:47.545Z,44.93
2019-05-21T03:49:21.047Z,42.25
2019-05-21T03:51:54.615Z,37.05
2019-05-21T03:54:28.179Z,43.28
2019-05-21T03:57:01.747Z,38.63
2019-05-21T03:59:35.326Z,38.78
2019-05-21T04:02:08.773Z,39.00
2019-05-21T04:04:42.441Z,37.67
2019-05-21T04:07:16.118Z,35.52
2019-05-21T04:09:49.692Z,40.80
2019-05-21T04:12:23.183Z,38.38
2019-05-21T04:15:04.543Z,36.25
2019-05-21T04:20:24.226Z,37.55
2019-05-21T04:22:57.720Z,36.10
2019-05-21T04:25:31.218Z,33.13
2019-05-21T04:28:04.850Z,33.42
2019-05-21T04:30:39.182Z,35.25
2019-05-21T04:33:12.729Z,33.35
2019-05-21T04:35:46.394Z,39.67
2019-05-21T04:38:19.916Z,37.63
2019-05-21T04:40:53.500Z,36.68
2019-05-21T04:43:26.988Z,35.28
2019-05-21T04:46:00.639Z,36.35
2019-05-21T04:48:34.141Z,37.08
2019-05-21T04:51:07.788Z,33.75
2019-05-21T04:53:41.335Z,39.60
2019-05-21T04:56:14.849Z,40.23
2019-05-21T04:58:48.398Z,38.08
2019-05-21T05:01:21.950Z,39.83
2019-05-21T05:03:55.447Z,46.53
2019-05-21T05:06:29.088Z,42.95
2019-05-21T05:09:04.283Z,43.95
2019-05-21T05:11:37.985Z,46.42
2019-05-21T05:14:11.626Z,46.28
2019-05-21T05:16:45.299Z,45.60
2019-05-21T05:19:18.953Z,46.45
2019-05-21T05:21:52.590Z,47.35
2019-05-21T05:24:26.072Z,49.77
2019-05-21T05:26:59.754Z,49.18
2019-05-21T05:29:33.276Z,41.05
2019-05-21T05:32:06.858Z,50.23
2019-05-21T05:34:40.607Z,47.33
2019-05-21T05:37:14.115Z,44.45
2019-05-21T05:39:47.677Z,40.55
2019-05-21T05:42:21.315Z,42.25
2019-05-21T05:44:54.839Z,41.83
2019-05-21T05:47:28.476Z,39.85
2019-05-21T05:50:06.794Z,39.05
2019-05-21T05:52:40.362Z,32.45
2019-05-21T05:55:14.844Z,32.98
2019-05-21T05:57:48.496Z,36.95
2019-05-21T06:00:22.696Z,36.45
2019-05-21T06:02:56.362Z,36.30
2019-05-21T06:05:29.964Z,29.87
2019-05-21T06:08:03.568Z,35.20
2019-05-21T06:10:39.923Z,31.60
2019-05-21T06:13:12.426Z,31.90
2019-05-21T06:15:45.891Z,36.88
2019-05-21T06:18:19.562Z,32.67
2019-05-21T06:20:53.142Z,32.30
2019-05-21T06:23:26.686Z,30.88
2019-05-21T06:26:00.249Z,35.55
2019-05-21T06:28:33.766Z,34.10
2019-05-21T06:31:07.490Z,37.28
2019-05-21T06:34:09.666Z,36.73
2019-05-21T06:36:43.222Z,33.45
2019-05-21T06:39:16.801Z,29.40
2019-05-21T06:41:50.438Z,34.03
2019-05-21T06:44:24.030Z,35.03
2019-05-21T06:46:57.587Z,34.85
2019-05-21T06:49:31.311Z,34.98
2019-05-21T06:52:04.936Z,36.65
2019-05-21T06:54:38.595Z,35.03
2019-05-21T06:57:12.134Z,34.40
2019-05-21T06:59:45.796Z,30.32
2019-05-21T07:02:19.394Z,34.73
2019-05-21T07:04:52.858Z,37.30
2019-05-21T07:07:26.332Z,29.98
2019-05-21T07:09:59.991Z,38.63
2019-05-21T07:12:33.553Z,32.28
2019-05-21T07:15:09.226Z,32.63
2019-05-21T07:17:42.773Z,31.80
2019-05-21T07:20:16.977Z,31.68
2019-05-21T07:22:50.582Z,31.27
2019-05-21T07:25:24.202Z,32.85
2019-05-21T07:27:57.750Z,35.33
2019-05-21T07:30:31.345Z,30.37
2019-05-21T07:33:05.799Z,32.93
2019-05-21T07:35:39.965Z,36.68
2019-05-21T07:38:13.582Z,36.68
2019-05-21T07:40:47.190Z,36.63
2019-05-21T07:43:20.848Z,38.75
2019-05-21T07:45:54.475Z,41.15
2019-05-21T07:48:28.111Z,45.00
2019-05-21T07:51:01.686Z,38.15
2019-05-21T07:53:35.325Z,36.85
2019-05-21T07:56:08.848Z,36.33
2019-05-21T07:58:42.330Z,40.38
2019-05-21T08:01:15.998Z,42.95
2019-05-21T08:03:49.617Z,38.63
2019-05-21T08:06:23.206Z,36.58
2019-05-21T08:09:12.562Z,40.75
2019-05-21T08:11:31.973Z,36.63
2019-05-21T08:14:05.872Z,38.08
2019-05-21T08:16:39.409Z,37.65
2019-05-21T08:19:13.371Z,32.40
2019-05-21T08:21:46.937Z,39.18
2019-05-21T08:24:20.862Z,34.27
2019-05-21T08:26:54.509Z,36.70
2019-05-21T08:29:28.117Z,33.02
2019-05-21T08:32:01.664Z,37.13
2019-05-21T08:34:35.204Z,31.95
2019-05-21T08:37:08.707Z,32.17
2019-05-21T08:39:42.248Z,34.65
2019-05-21T08:42:15.789Z,28.67
2019-05-21T08:44:49.265Z,31.93
2019-05-21T08:47:22.851Z,32.78
2019-05-21T08:49:56.447Z,37.23
2019-05-21T08:52:30.247Z,32.00
2019-05-21T08:55:05.673Z,31.55
2019-05-21T08:57:39.345Z,30.17
2019-05-21T09:00:16.518Z,31.95
2019-05-21T09:02:50.281Z,33.02
2019-05-21T09:05:23.751Z,32.75
2019-05-21T09:07:57.329Z,24.67
2019-05-21T09:10:34.593Z,25.88
2019-05-21T09:13:08.224Z,23.65
2019-05-21T09:15:41.784Z,23.50
2019-05-21T09:18:15.367Z,22.90
2019-05-21T09:20:48.893Z,25.52
2019-05-21T09:23:22.570Z,24.35
2019-05-21T09:25:56.123Z,23.12
2019-05-21T09:28:29.632Z,22.30
2019-05-21T09:31:03.170Z,25.43
2019-05-21T09:33:36.759Z,27.07
2019-05-21T09:36:10.382Z,25.97
2019-05-21T09:38:43.964Z,46.83
2019-05-21T09:41:17.560Z,31.30
2019-05-21T09:43:51.161Z,33.20
2019-05-21T09:46:24.639Z,35.65
2019-05-21T09:48:58.310Z,38.05
2019-05-21T09:51:31.845Z,38.17
2019-05-21T09:54:05.681Z,38.02
2019-05-21T09:56:39.233Z,37.40
2019-05-21T09:59:18.570Z,39.85
2019-05-21T10:01:53.686Z,42.05
2019-05-21T10:04:27.339Z,45.60
2019-05-21T10:07:00.883Z,45.40
2019-05-21T10:09:34.646Z,40.78
2019-05-21T10:12:08.355Z,44.35
2019-05-21T10:14:42.029Z,43.13
2019-05-21T10:17:15.577Z,49.08
2019-05-21T10:19:49.263Z,46.45
2019-05-21T10:22:22.859Z,45.75
2019-05-21T10:24:56.378Z,47.65
2019-05-21T10:27:30.014Z,52.15
2019-05-21T10:30:05.356Z,52.40
2019-05-21T10:32:38.888Z,57.58
2019-05-21T10:35:12.687Z,51.63
2019-05-21T10:37:54.677Z,50.00
2019-05-21T10:40:21.593Z,49.23
2019-05-21T10:42:55.134Z,45.75
2019-05-21T10:45:28.766Z,47.27
2019-05-21T10:48:02.257Z,49.45
2019-05-21T10:50:35.900Z,46.80
2019-05-21T10:53:09.387Z,46.88
2019-05-21T10:55:42.955Z,45.35
2019-05-21T10:58:16.527Z,45.92
2019-05-21T11:00:51.801Z,46.80
2019-05-21T11:03:29.469Z,43.55
2019-05-21T11:06:10.266Z,51.40
2019-05-21T11:08:39.119Z,49.93
2019-05-21T11:11:12.794Z,42.60
2019-05-21T11:13:46.299Z,44.03
2019-05-21T11:16:19.872Z,45.58
2019-05-21T11:18:53.372Z,48.48
2019-05-21T11:21:27.069Z,45.73
2019-05-21T11:24:00.709Z,45.20
2019-05-21T11:26:34.620Z,42.62
2019-05-21T11:29:08.176Z,41.02
2019-05-21T11:31:55.764Z,42.48
2019-05-21T11:34:16.950Z,37.48
2019-05-21T11:36:50.630Z,41.65
2019-05-21T11:39:24.122Z,44.77
2019-05-21T11:41:57.707Z,42.62
2019-05-21T11:44:31.261Z,38.73
2019-05-21T11:47:04.912Z,40.60
2019-05-21T11:49:38.456Z,40.70
2019-05-21T11:52:12.042Z,45.70
2019-05-21T11:54:45.655Z,44.50
2019-05-21T11:57:19.239Z,50.52
2019-05-21T11:59:52.809Z,46.45
2019-05-21T12:02:26.327Z,45.65
2019-05-21T12:04:59.883Z,55.10
2019-05-21T12:07:33.387Z,57.25
2019-05-21T12:10:08.107Z,52.85
2019-05-21T12:12:41.622Z,58.63
2019-05-21T12:15:15.719Z,56.55
2019-05-21T12:17:49.230Z,56.05
2019-05-21T12:20:36.126Z,57.45
2019-05-21T12:22:58.325Z,56.92
2019-05-21T12:25:31.897Z,58.15
2019-05-21T12:28:05.572Z,53.48
2019-05-21T12:30:39.120Z,55.67
2019-05-21T12:33:12.647Z,56.48
2019-05-21T12:35:46.173Z,58.28
2019-05-21T12:38:19.826Z,62.15
2019-05-21T12:40:53.447Z,60.08
2019-05-21T12:43:27.020Z,61.65
2019-05-21T12:46:00.568Z,58.73
2019-05-21T12:48:34.137Z,62.40
2019-05-21T12:51:07.718Z,63.28
2019-05-21T12:53:41.367Z,63.50
2019-05-21T12:56:14.911Z,70.45
2019-05-21T12:58:48.419Z,64.12
2019-05-21T13:01:22.073Z,65.40
2019-05-21T13:03:55.683Z,68.70
2019-05-21T13:06:29.297Z,68.75
2019-05-21T13:09:08.164Z,71.05
2019-05-21T13:11:41.459Z,64.53
2019-05-21T13:14:18.548Z,60.20
2019-05-21T13:16:50.250Z,60.20
2019-05-21T13:19:23.925Z,61.13
2019-05-21T13:21:57.456Z,63.78
2019-05-21T13:24:30.955Z,58.02
2019-05-21T13:27:05.602Z,68.02
2019-05-21T13:29:39.322Z,63.83
2019-05-21T13:32:12.835Z,61.40
2019-05-21T13:34:46.435Z,66.75
2019-05-21T13:37:19.948Z,66.82
2019-05-21T13:39:53.518Z,66.53
2019-05-21T13:42:27.069Z,68.83
2019-05-21T13:45:00.674Z,66.75
2019-05-21T13:47:34.571Z,68.60
2019-05-21T13:50:09.740Z,66.80
2019-05-21T13:52:43.293Z,64.92
2019-05-21T13:55:17.148Z,66.47
2019-05-21T13:57:50.738Z,63.87
2019-05-21T14:00:35.399Z,62.98
2019-05-21T14:03:09.337Z,64.87
2019-05-21T14:05:43.366Z,63.60
2019-05-21T14:08:17.032Z,62.45
2019-05-21T14:10:50.622Z,62.78
2019-05-21T14:13:24.191Z,60.67
2019-05-21T14:15:57.867Z,62.53
2019-05-21T14:18:31.412Z,60.63
2019-05-21T14:21:05.052Z,63.30
2019-05-21T14:23:38.595Z,60.75
2019-05-21T14:26:12.290Z,62.20
2019-05-21T14:28:45.867Z,61.15
2019-05-21T14:31:19.485Z,60.20
2019-05-21T14:33:53.017Z,61.02
2019-05-21T14:36:26.605Z,56.28
2019-05-21T14:39:00.088Z,55.52
2019-05-21T14:41:33.725Z,57.53
2019-05-21T14:44:07.395Z,56.60
2019-05-21T14:46:41.112Z,58.75
2019-05-21T14:49:14.663Z,56.55
2019-05-21T14:51:48.237Z,52.08
2019-05-21T14:54:26.639Z,50.95
2019-05-21T14:56:57.155Z,44.58
2019-05-21T14:59:30.682Z,44.60
2019-05-21T15:02:04.846Z,50.00
2019-05-21T15:04:38.719Z,49.03
2019-05-21T15:07:12.458Z,50.88
2019-05-21T15:09:46.033Z,45.38
2019-05-21T15:12:19.633Z,45.90
2019-05-21T15:14:53.182Z,44.73
2019-05-21T15:17:26.770Z,45.60
2019-05-21T15:20:01.892Z,41.08
2019-05-21T15:22:35.411Z,38.05
2019-05-21T15:25:09.121Z,39.78
2019-05-21T15:27:42.735Z,34.15
2019-05-21T15:30:16.463Z,31.82
2019-05-21T15:32:49.984Z,36.48
2019-05-21T15:35:24.083Z,35.70
2019-05-21T15:37:59.535Z,33.55
2019-05-21T15:40:41.038Z,31.25
2019-05-21T15:43:14.624Z,41.02
2019-05-21T15:45:48.242Z,33.48
2019-05-21T15:48:26.079Z,39.33
2019-05-21T15:50:57.043Z,39.42
2019-05-21T15:53:30.577Z,39.85
2019-05-21T15:56:04.195Z,37.60
2019-05-21T15:58:37.805Z,39.25
2019-05-21T16:01:11.369Z,41.60
2019-05-21T16:03:44.922Z,41.00
2019-05-21T16:06:18.642Z,39.25
2019-05-21T16:08:52.291Z,32.78
2019-05-21T16:11:28.901Z,34.03
2019-05-21T16:14:01.103Z,32.90
2019-05-21T16:16:34.668Z,30.68
2019-05-21T16:19:08.376Z,27.55
2019-05-21T16:21:41.861Z,33.53
2019-05-21T16:24:15.521Z,29.85
2019-05-21T16:26:49.085Z,29.37
2019-05-21T16:29:22.668Z,27.10
2019-05-21T16:31:56.230Z,27.75
2019-05-21T16:34:31.991Z,26.02
2019-05-21T16:37:05.609Z,23.35
2019-05-21T16:39:39.157Z,22.73
2019-05-21T16:42:12.627Z,20.00
2019-05-21T16:44:46.437Z,21.60
2019-05-21T16:47:19.996Z,18.85
2019-05-21T16:49:53.528Z,19.77
2019-05-21T16:52:27.149Z,18.52
2019-05-21T16:55:00.810Z,19.45
2019-05-21T16:57:34.492Z,19.30
2019-05-21T17:00:09.475Z,19.02
2019-05-21T17:02:43.454Z,17.37
2019-05-21T17:05:17.394Z,16.52
2019-05-21T17:07:51.125Z,17.50
2019-05-21T17:10:24.950Z,16.27
2019-05-21T17:12:58.425Z,16.97
2019-05-21T17:15:32.026Z,14.58
2019-05-21T17:18:05.650Z,13.05
2019-05-21T17:20:39.225Z,10.68
2019-05-21T17:23:12.788Z,10.80
2019-05-21T17:25:46.285Z,8.75
2019-05-21T17:28:19.772Z,8.68
2019-05-21T17:30:53.284Z,8.53
2019-05-21T17:33:28.457Z,7.05
2019-05-21T17:36:02.037Z,7.85
2019-05-21T17:38:35.637Z,7.55
2019-05-21T17:41:09.287Z,8.73
2019-05-21T17:43:42.844Z,8.55
2019-05-21T17:46:16.561Z,10.30
2019-05-21T17:48:50.147Z,8.03
2019-05-21T17:51:23.826Z,8.20
2019-05-21T17:53:57.554Z,8.40
2019-05-21T17:56:31.409Z,8.40
2019-05-21T17:59:05.091Z,7.10
2019-05-21T18:01:38.665Z,7.92
2019-05-21T18:04:13.032Z,7.90
2019-05-21T18:06:47.285Z,10.35
2019-05-21T18:09:22.386Z,9.38
2019-05-21T18:11:56.225Z,8.08
2019-05-21T18:14:30.797Z,9.10
2019-05-21T18:17:05.033Z,8.78
2019-05-21T18:19:38.770Z,10.20
2019-05-21T18:22:13.979Z,11.28
2019-05-21T18:24:48.900Z,12.00
2019-05-21T18:27:24.303Z,15.23
2019-05-21T18:29:58.655Z,10.95
2019-05-21T18:32:32.302Z,11.10
2019-05-21T18:35:07.717Z,11.25
2019-05-21T18:37:41.767Z,12.00
2019-05-21T18:40:16.853Z,12.00
2019-05-21T18:42:50.423Z,12.65
2019-05-21T18:45:24.038Z,12.10
2019-05-21T18:47:58.416Z,14.13
2019-05-21T18:50:36.441Z,12.45
2019-05-21T18:53:07.369Z,11.78
2019-05-21T18:55:41.042Z,17.12
2019-05-21T18:58:17.151Z,14.47
2019-05-21T19:00:50.259Z,14.90
2019-05-21T19:03:25.641Z,17.60
2019-05-21T19:05:59.258Z,16.07
2019-05-21T19:08:33.573Z,16.50
2019-05-21T19:11:07.207Z,17.42
2019-05-21T19:13:40.823Z,17.23
2019-05-21T19:16:14.362Z,18.95
2019-05-21T19:18:47.904Z,22.52
2019-05-21T19:21:21.382Z,22.55
2019-05-21T19:23:54.975Z,23.60
2019-05-21T19:26:28.581Z,20.62
2019-05-21T19:29:02.076Z,23.30
2019-05-21T19:31:35.631Z,25.23
2019-05-21T19:34:09.282Z,29.98
2019-05-21T19:36:42.876Z,30.57
2019-05-21T19:39:16.617Z,33.25
2019-05-21T19:41:50.249Z,35.52
2019-05-21T19:44:24.027Z,37.15
2019-05-21T19:46:57.480Z,34.78
2019-05-21T19:49:31.028Z,36.13
2019-05-21T19:52:04.698Z,37.35
2019-05-21T19:54:38.622Z,39.45
2019-05-21T19:57:12.237Z,40.17
2019-05-21T19:59:45.879Z,38.23
2019-05-21T20:02:20.387Z,34.73
2019-05-21T20:04:54.468Z,35.40
2019-05-21T20:07:28.351Z,35.23
2019-05-21T20:10:02.192Z,32.85
2019-05-21T20:12:36.456Z,31.40
2019-05-21T20:15:10.509Z,32.80
2019-05-21T20:17:46.088Z,27.73
2019-05-21T20:20:23.887Z,25.27
2019-05-21T20:22:57.893Z,25.35
2019-05-21T20:25:33.799Z,21.02
2019-05-21T20:28:10.722Z,21.45
2019-05-21T20:30:48.825Z,23.50
2019-05-21T20:33:24.017Z,21.10
2019-05-21T20:35:58.137Z,23.15
2019-05-21T20:38:31.785Z,23.65
2019-05-21T20:41:05.798Z,21.00
2019-05-21T20:43:39.375Z,22.95
2019-05-21T20:46:14.346Z,20.05
2019-05-21T20:48:49.101Z,21.42
2019-05-21T20:51:22.666Z,17.27
2019-05-21T20:53:56.207Z,18.27
2019-05-21T20:56:29.743Z,18.87
2019-05-21T20:59:03.254Z,17.57
2019-05-21T21:01:37.477Z,17.05
2019-05-21T21:04:11.443Z,18.37
2019-05-21T21:06:45.158Z,15.83
2019-05-21T21:09:19.095Z,16.57
2019-05-21T21:11:52.671Z,14.87
2019-05-21T21:14:26.613Z,15.35
2019-05-21T21:17:00.349Z,13.55
2019-05-21T21:19:34.172Z,13.30
2019-05-21T21:22:07.757Z,14.20
2019-05-21T21:24:41.299Z,13.75
2019-05-21T21:27:15.381Z,13.55
2019-05-21T21:29:49.398Z,13.65
2019-05-21T21:32:23.116Z,15.72
2019-05-21T21:34:57.379Z,14.15
2019-05-21T21:37:31.008Z,17.35
2019-05-21T21:40:07.013Z,18.15
2019-05-21T21:42:41.487Z,16.93
2019-05-21T21:45:15.461Z,19.27
2019-05-21T21:47:49.677Z,18.35
2019-05-21T21:50:24.477Z,20.82
2019-05-21T21:52:58.486Z,19.92
2019-05-21T21:55:32.204Z,19.02
2019-05-21T21:58:05.900Z,15.50
2019-05-21T22:01:03.584Z,19.45
2019-05-21T22:03:38.091Z,21.97
2019-05-21T22:06:13.933Z,22.42
2019-05-21T22:08:47.613Z,20.97
2019-05-21T22:11:21.623Z,21.97
2019-05-21T22:13:57.252Z,21.75
2019-05-21T22:16:31.044Z,24.47
2019-05-21T22:19:06.294Z,24.52
2019-05-21T22:21:40.018Z,22.25
2019-05-21T22:24:14.029Z,22.32
2019-05-21T22:26:48.891Z,23.27
2019-05-21T22:29:22.956Z,18.45
2019-05-21T22:31:56.463Z,22.75
2019-05-21T22:34:30.169Z,22.52
2019-05-21T22:37:05.390Z,20.90
2019-05-21T22:39:39.914Z,23.62
2019-05-21T22:42:15.173Z,21.82
2019-05-21T22:44:48.819Z,23.38
2019-05-21T22:47:22.644Z,21.55
2019-05-21T22:49:56.118Z,23.52
2019-05-21T22:52:29.821Z,25.02
2019-05-21T22:55:04.498Z,27.02
2019-05-21T22:57:38.356Z,27.67
2019-05-21T23:00:12.367Z,29.48
2019-05-21T23:02:46.777Z,23.25
2019-05-21T23:05:23.138Z,30.17
2019-05-21T23:07:56.402Z,25.45
2019-05-21T23:10:30.324Z,32.15
2019-05-21T23:13:04.008Z,26.35
2019-05-21T23:15:38.123Z,26.87
2019-05-21T23:18:11.870Z,28.77
2019-05-21T23:20:46.632Z,31.30
2019-05-21T23:23:20.389Z,26.25
2019-05-21T23:25:55.115Z,33.13
2019-05-21T23:28:29.525Z,34.58
2019-05-21T23:31:04.905Z,34.33
2019-05-21T23:33:38.742Z,29.02
2019-05-21T23:36:13.630Z,30.05
2019-05-21T23:38:48.824Z,31.15
2019-05-21T23:41:22.807Z,34.20
2019-05-21T23:43:56.610Z,29.25
2019-05-21T23:46:30.511Z,25.68
2019-05-21T23:49:04.031Z,24.32
2019-05-21T23:51:37.650Z,24.52
2019-05-21T23:54:11.303Z,31.70
2019-05-21T23:56:44.858Z,27.25
2019-05-21T23:59:20.489Z,28.55
